Time;durP1;ratioP1;P1;durP2;ratioP2;P2;SDS_P1;SDS_P2;PMS_P1;PMS_P2;Temp;Humidity;BMP_temperature;BMP_pressure;BME280_temperature;BME280_humidity;BME280_pressure;Samples;Min_cycle;Max_cycle;Signal;HPM_P1;HPM_P2
2021/12/21 00:01:05;;;;;;;6.25;4.50;;;-4.00;99.90;;;;;;4938332;29;20039;-82
2021/12/21 00:03:31;;;;;;;15.30;4.80;;;-4.00;99.90;;;;;;4938126;29;20043;-82
2021/12/21 00:05:58;;;;;;;19.95;5.13;;;-3.90;99.90;;;;;;4934449;29;20047;-82
2021/12/21 00:08:24;;;;;;;13.63;5.30;;;-3.90;99.90;;;;;;4955499;29;20031;-81
2021/12/21 00:10:50;;;;;;;13.73;6.07;;;-4.00;99.90;;;;;;4937934;29;20040;-81
2021/12/21 00:15:59;;;;;;;7.72;5.35;;;-4.10;99.90;;;;;;4938680;29;20036;-82
2021/12/21 00:18:45;;;;;;;10.63;4.70;;;-4.20;99.90;;;;;;4936753;29;20036;-82
2021/12/21 00:21:34;;;;;;;14.07;6.60;;;-4.10;99.90;;;;;;4921322;29;20063;-83
2021/12/21 00:24:10;;;;;;;18.92;5.55;;;-4.00;99.90;;;;;;4938245;29;20039;-83
2021/12/21 00:26:37;;;;;;;17.45;5.32;;;-4.00;99.90;;;;;;4937188;29;20036;-83
2021/12/21 00:29:04;;;;;;;18.23;6.57;;;-4.00;99.90;;;;;;4937610;29;20038;-83
2021/12/21 00:31:35;;;;;;;13.38;5.78;;;-4.10;99.90;;;;;;4937878;29;20043;-83
2021/12/21 00:34:04;;;;;;;9.73;5.15;;;-4.10;99.90;;;;;;4938185;29;20046;-82
2021/12/21 00:36:31;;;;;;;15.15;5.43;;;-4.30;99.90;;;;;;4937436;29;20031;-83
2021/12/21 00:39:05;;;;;;;13.98;4.88;;;-4.30;99.90;;;;;;4925121;29;20023;-83
2021/12/21 00:41:33;;;;;;;11.60;5.70;;;-4.20;99.90;;;;;;4938329;29;20040;-83
2021/12/21 00:43:59;;;;;;;8.38;4.35;;;-4.30;99.90;;;;;;4920805;29;20051;-83
2021/12/21 00:46:26;;;;;;;10.93;5.40;;;-4.40;99.90;;;;;;4923468;29;20039;-81
2021/12/21 00:48:55;;;;;;;16.13;6.28;;;-4.40;99.90;;;;;;4955122;29;20393;-80
2021/12/21 00:51:24;;;;;;;18.98;5.57;;;-4.40;99.90;;;;;;4936790;29;20532;-82
2021/12/21 00:53:51;;;;;;;11.02;5.95;;;-4.40;99.90;;;;;;4926196;29;20054;-81
2021/12/21 00:56:18;;;;;;;9.95;6.13;;;-4.30;99.90;;;;;;4938256;29;20032;-83
2021/12/21 00:58:44;;;;;;;14.15;5.40;;;-4.30;99.90;;;;;;4936824;29;20042;-81
2021/12/21 01:01:10;;;;;;;13.07;5.95;;;-4.40;99.90;;;;;;4937262;29;20046;-81
2021/12/21 01:03:42;;;;;;;12.82;6.57;;;-4.50;99.90;;;;;;4936923;29;20031;-81
2021/12/21 01:06:19;;;;;;;10.70;5.38;;;-4.50;99.90;;;;;;4937599;29;20040;-81
2021/12/21 01:09:15;;;;;;;11.40;5.75;;;-4.60;99.90;;;;;;4937921;29;20457;-81
2021/12/21 01:11:37;;;;;;;11.02;5.57;;;-4.60;99.90;;;;;;4931744;29;20058;-81
2021/12/21 01:16:43;;;;;;;7.95;5.50;;;-4.50;99.90;;;;;;4945328;29;20036;-80
2021/12/21 01:19:21;;;;;;;12.35;5.85;;;-4.50;99.90;;;;;;4937203;29;20048;-81
2021/12/21 01:22:17;;;;;;;8.48;5.18;;;-4.50;99.90;;;;;;4955718;29;20516;-81
2021/12/21 01:35:41;;;;;;;12.05;6.75;;;-4.60;99.90;;;;;;4919493;29;20048;-80
2021/12/21 01:38:10;;;;;;;18.30;6.10;;;-4.60;99.90;;;;;;4952631;29;20051;-80
2021/12/21 01:40:48;;;;;;;13.05;6.80;;;-4.70;99.90;;;;;;4934811;29;20047;-80
2021/12/21 01:43:26;;;;;;;13.82;7.03;;;-4.70;99.90;;;;;;4936706;29;20031;-80
2021/12/21 01:51:23;;;;;;;16.40;7.85;;;-4.60;99.90;;;;;;4936127;29;20044;-81
2021/12/21 01:53:50;;;;;;;16.58;7.28;;;-4.60;99.90;;;;;;4936114;29;20040;-81
2021/12/21 01:56:18;;;;;;;13.10;6.53;;;-4.60;99.90;;;;;;4936477;29;20099;-81
2021/12/21 01:58:44;;;;;;;11.40;6.85;;;-4.60;99.90;;;;;;4936232;29;20473;-80
2021/12/21 02:01:15;;;;;;;10.93;7.88;;;-4.50;99.90;;;;;;4936315;29;20036;-80
2021/12/21 02:03:47;;;;;;;13.95;7.10;;;-4.50;99.90;;;;;;4936217;29;20047;-80
2021/12/21 02:06:22;;;;;;;15.48;7.57;;;-4.60;99.90;;;;;;4936244;29;20069;-80
2021/12/21 02:08:49;;;;;;;12.35;8.10;;;-4.70;99.90;;;;;;4944677;29;20042;-81
2021/12/21 02:11:16;;;;;;;17.25;6.72;;;-4.70;99.90;;;;;;4954324;29;20040;-81
2021/12/21 02:13:47;;;;;;;14.20;6.70;;;-4.60;99.90;;;;;;4954492;29;20028;-80
2021/12/21 02:16:20;;;;;;;18.90;6.75;;;-4.50;99.90;;;;;;4921419;29;20050;-81
2021/12/21 02:18:54;;;;;;;12.95;6.82;;;-4.50;99.90;;;;;;4953766;29;20028;-80
2021/12/21 02:23:51;;;;;;;21.20;9.32;;;-4.60;99.90;;;;;;4935565;29;20465;-80
2021/12/21 02:29:09;;;;;;;10.55;7.75;;;-4.60;99.90;;;;;;4935913;29;20028;-80
2021/12/21 02:31:35;;;;;;;18.70;7.93;;;-4.60;99.90;;;;;;4934994;29;20054;-82
2021/12/21 02:34:01;;;;;;;12.65;8.60;;;-4.70;99.90;;;;;;4936146;29;20062;-82
2021/12/21 02:36:28;;;;;;;14.93;8.75;;;-4.70;99.90;;;;;;4935423;29;20059;-81
2021/12/21 02:38:54;;;;;;;13.38;7.57;;;-4.60;99.90;;;;;;4935451;29;20039;-82
2021/12/21 02:41:20;;;;;;;10.38;8.10;;;-4.60;99.90;;;;;;4935539;29;20031;-82
2021/12/21 02:43:47;;;;;;;21.10;10.25;;;-4.60;99.90;;;;;;4935147;29;20035;-81
2021/12/21 02:46:13;;;;;;;11.65;8.43;;;-4.60;99.90;;;;;;4954281;29;20390;-82
2021/12/21 02:48:39;;;;;;;15.55;8.20;;;-4.50;99.90;;;;;;4935383;29;20465;-81
2021/12/21 02:51:06;;;;;;;11.52;7.60;;;-4.50;99.90;;;;;;4935357;29;20047;-82
2021/12/21 02:53:32;;;;;;;18.48;7.05;;;-4.50;99.90;;;;;;4919330;29;20028;-82
2021/12/21 02:55:58;;;;;;;17.67;7.20;;;-4.50;99.90;;;;;;4935362;29;20043;-82
2021/12/21 02:58:25;;;;;;;22.60;7.60;;;-4.50;99.90;;;;;;4909749;29;20045;-80
2021/12/21 03:00:53;;;;;;;10.90;6.55;;;-4.50;99.90;;;;;;4934682;29;20043;-80
2021/12/21 03:03:20;;;;;;;14.43;7.45;;;-4.50;99.90;;;;;;4935496;29;20036;-80
2021/12/21 03:05:52;;;;;;;11.88;8.52;;;-4.50;99.90;;;;;;4934951;29;20051;-80
2021/12/21 03:08:26;;;;;;;14.98;6.28;;;-4.50;99.90;;;;;;4945132;29;20034;-81
2021/12/21 03:11:05;;;;;;;9.98;6.13;;;-4.60;99.90;;;;;;4932992;29;20382;-81
2021/12/21 03:16:17;;;;;;;12.30;6.35;;;-4.60;99.90;;;;;;4935410;29;20039;-81
2021/12/21 03:18:43;;;;;;;16.15;6.60;;;-4.60;99.90;;;;;;4952367;29;20389;-80
2021/12/21 03:21:10;;;;;;;9.55;5.93;;;-4.60;99.90;;;;;;4935505;29;20035;-80
2021/12/21 03:23:38;;;;;;;12.13;6.10;;;-4.70;99.90;;;;;;4935411;29;20027;-80
2021/12/21 03:26:04;;;;;;;14.20;7.18;;;-4.80;99.90;;;;;;4918605;29;20040;-81
2021/12/21 03:28:30;;;;;;;11.23;6.18;;;-4.80;99.90;;;;;;4934649;29;20043;-81
2021/12/21 03:30:56;;;;;;;8.65;6.15;;;-4.80;99.90;;;;;;4933397;29;20056;-80
2021/12/21 03:33:23;;;;;;;15.45;7.05;;;-4.90;99.90;;;;;;4918246;29;20066;-80
2021/12/21 03:35:49;;;;;;;12.85;6.53;;;-4.90;99.90;;;;;;4948132;29;20035;-80
2021/12/21 03:38:16;;;;;;;12.68;6.57;;;-4.90;99.90;;;;;;4934852;29;20040;-80
2021/12/21 03:40:43;;;;;;;19.15;6.55;;;-4.90;99.90;;;;;;4934603;29;20051;-80
2021/12/21 03:43:10;;;;;;;16.02;7.63;;;-4.90;99.90;;;;;;4918118;29;20047;-81
2021/12/21 03:45:40;;;;;;;12.57;6.18;;;-4.80;99.90;;;;;;4934298;29;20036;-80
2021/12/21 03:48:06;;;;;;;12.40;6.85;;;-4.80;99.90;;;;;;4935724;29;20035;-80
2021/12/21 03:50:32;;;;;;;9.93;6.35;;;-4.80;99.90;;;;;;4934549;29;20059;-80
2021/12/21 03:52:58;;;;;;;9.23;6.72;;;-4.80;99.90;;;;;;4937645;29;20036;-80
2021/12/21 03:55:25;;;;;;;10.70;6.20;;;-4.90;99.90;;;;;;4939234;29;20031;-81
2021/12/21 03:57:51;;;;;;;11.50;6.55;;;-4.90;99.90;;;;;;4938400;29;20046;-80
2021/12/21 04:00:18;;;;;;;9.05;5.88;;;-4.90;99.90;;;;;;4938394;29;20109;-80
2021/12/21 04:02:44;;;;;;;15.50;6.63;;;-4.80;99.90;;;;;;4938071;29;20027;-80
2021/12/21 04:05:11;;;;;;;10.65;6.80;;;-4.90;99.90;;;;;;4921278;29;20218;-80
2021/12/21 04:07:37;;;;;;;12.38;6.32;;;-4.90;99.90;;;;;;4946078;29;20035;-80
2021/12/21 04:10:04;;;;;;;21.35;7.15;;;-4.90;99.90;;;;;;4950490;29;20385;-80
2021/12/21 04:12:30;;;;;;;12.35;6.30;;;-4.90;99.90;;;;;;4906315;29;20044;-81
2021/12/21 04:14:58;;;;;;;13.65;6.63;;;-4.90;99.90;;;;;;4937533;29;20040;-80
2021/12/21 04:17:24;;;;;;;7.90;5.90;;;-4.80;99.90;;;;;;4938530;29;20043;-81
2021/12/21 04:19:51;;;;;;;15.50;6.65;;;-4.80;99.90;;;;;;4938448;29;20039;-81
2021/12/21 04:22:19;;;;;;;12.55;7.00;;;-4.90;99.90;;;;;;4938079;29;20044;-81
2021/12/21 04:24:45;;;;;;;11.52;6.95;;;-4.90;99.90;;;;;;4937611;29;20097;-81
2021/12/21 04:27:11;;;;;;;15.20;7.20;;;-4.80;99.90;;;;;;4933762;29;20485;-81
2021/12/21 04:29:37;;;;;;;20.88;7.85;;;-4.80;99.90;;;;;;4937905;29;20023;-81
2021/12/21 04:32:04;;;;;;;10.93;6.32;;;-4.80;99.90;;;;;;4937711;29;20047;-81
2021/12/21 04:34:31;;;;;;;9.02;5.60;;;-4.80;99.90;;;;;;4920828;29;20034;-81
2021/12/21 04:36:57;;;;;;;11.35;6.82;;;-4.90;99.90;;;;;;4937563;29;20062;-81
2021/12/21 04:40:03;;;;;;;16.52;6.88;;;-4.80;99.90;;;;;;4953925;29;20031;-82
2021/12/21 04:42:16;;;;;;;12.10;7.38;;;-4.80;99.90;;;;;;4935042;29;20055;-81
2021/12/21 04:44:42;;;;;;;14.30;6.88;;;-4.90;99.90;;;;;;4937426;29;20028;-81
2021/12/21 04:47:08;;;;;;;8.77;5.80;;;-4.90;99.90;;;;;;4938018;29;20027;-81
2021/12/21 04:49:34;;;;;;;12.52;6.47;;;-5.00;99.90;;;;;;4937247;29;20386;-81
2021/12/21 04:52:01;;;;;;;13.23;5.57;;;-5.10;99.90;;;;;;4936695;29;20055;-81
2021/12/21 04:54:27;;;;;;;9.13;6.20;;;-5.00;99.90;;;;;;4937082;29;20417;-80
2021/12/21 04:56:53;;;;;;;8.88;6.72;;;-5.00;99.90;;;;;;4936994;29;20032;-80
2021/12/21 04:59:20;;;;;;;14.38;6.28;;;-5.00;99.90;;;;;;4938237;29;20032;-81
2021/12/21 05:01:47;;;;;;;8.50;6.18;;;-5.10;99.90;;;;;;4936767;29;20047;-80
2021/12/21 05:04:13;;;;;;;10.38;6.93;;;-5.10;99.90;;;;;;4937102;29;20401;-81
2021/12/21 05:06:39;;;;;;;8.77;5.85;;;-5.00;99.90;;;;;;4936325;29;20461;-81
2021/12/21 05:09:24;;;;;;;7.63;5.22;;;-5.00;99.90;;;;;;4937132;29;20046;-82
2021/12/21 05:11:53;;;;;;;10.43;6.18;;;-5.10;99.90;;;;;;4933805;29;20051;-82
2021/12/21 05:14:19;;;;;;;11.15;7.40;;;-5.20;99.90;;;;;;4936962;29;20043;-85
2021/12/21 05:16:45;;;;;;;10.55;6.22;;;-5.20;99.90;;;;;;4936235;29;20484;-85
2021/12/21 05:19:12;;;;;;;11.93;5.47;;;-5.20;99.90;;;;;;4936612;29;20044;-84
2021/12/21 05:21:38;;;;;;;8.38;6.30;;;-5.30;99.90;;;;;;4954887;29;20054;-84
2021/12/21 05:24:04;;;;;;;10.07;5.97;;;-5.20;99.90;;;;;;4941896;29;20031;-83
2021/12/21 05:26:31;;;;;;;12.88;6.35;;;-5.30;99.90;;;;;;4942975;29;20032;-83
2021/12/21 05:28:58;;;;;;;10.27;5.85;;;-5.30;99.90;;;;;;4936692;29;20039;-85
2021/12/21 05:31:24;;;;;;;11.15;5.75;;;-5.30;99.90;;;;;;4937235;29;20040;-85
2021/12/21 05:33:52;;;;;;;11.73;5.32;;;-5.30;99.90;;;;;;4936926;29;20035;-86
2021/12/21 05:36:20;;;;;;;15.25;6.88;;;-5.20;99.90;;;;;;4936231;29;20031;-84
2021/12/21 05:38:49;;;;;;;9.35;6.00;;;-5.40;99.90;;;;;;4936592;29;20028;-84
2021/12/21 05:41:23;;;;;;;7.88;6.25;;;-5.50;99.90;;;;;;4936592;29;20036;-86
2021/12/21 05:43:50;;;;;;;8.40;6.05;;;-5.40;99.90;;;;;;4919632;29;20463;-83
2021/12/21 05:46:16;;;;;;;8.93;6.07;;;-5.50;99.90;;;;;;4936501;29;20032;-83
2021/12/21 05:48:42;;;;;;;11.73;6.80;;;-5.60;99.90;;;;;;4938544;29;20046;-82
2021/12/21 05:51:08;;;;;;;13.85;6.40;;;-5.60;99.90;;;;;;4937603;29;20401;-83
2021/12/21 05:53:35;;;;;;;9.75;6.53;;;-5.70;99.90;;;;;;4936572;29;20036;-84
2021/12/21 05:56:01;;;;;;;10.52;6.10;;;-5.70;99.90;;;;;;4938060;29;20031;-84
2021/12/21 05:58:27;;;;;;;12.68;7.13;;;-5.70;99.90;;;;;;4938327;29;20039;-84
2021/12/21 06:00:53;;;;;;;14.60;6.38;;;-5.60;99.90;;;;;;4937970;29;20046;-83
2021/12/21 06:03:19;;;;;;;10.70;6.13;;;-5.50;99.90;;;;;;4923290;29;20032;-83
2021/12/21 06:05:46;;;;;;;14.30;6.47;;;-5.60;99.90;;;;;;4936124;29;20027;-83
2021/12/21 06:08:12;;;;;;;11.57;6.43;;;-5.50;99.90;;;;;;4936408;29;20039;-82
2021/12/21 06:10:41;;;;;;;8.60;6.13;;;-5.40;99.90;;;;;;4936363;29;20047;-83
2021/12/21 06:13:25;;;;;;;15.48;6.85;;;-5.50;99.90;;;;;;4937372;29;20475;-83
2021/12/21 06:16:10;;;;;;;9.57;5.78;;;-5.60;99.90;;;;;;4936817;29;20028;-83
2021/12/21 06:26:43;;;;;;;12.50;6.50;;;-5.50;99.90;;;;;;4935741;29;20028;-82
2021/12/21 06:29:09;;;;;;;10.73;6.97;;;-5.50;99.90;;;;;;4937006;29;20050;-83
2021/12/21 06:31:36;;;;;;;16.48;6.50;;;-5.50;99.90;;;;;;4939664;29;20035;-84
2021/12/21 06:34:02;;;;;;;8.20;5.80;;;-5.50;99.90;;;;;;4935385;29;20039;-84
2021/12/21 06:36:29;;;;;;;17.90;7.65;;;-5.50;99.90;;;;;;4936583;29;20047;-83
2021/12/21 06:38:55;;;;;;;11.13;6.53;;;-5.40;99.90;;;;;;4935870;29;20040;-81
2021/12/21 06:41:21;;;;;;;8.63;6.30;;;-5.30;99.90;;;;;;4935397;29;20405;-83
2021/12/21 06:43:48;;;;;;;9.23;6.88;;;-5.30;99.90;;;;;;4935723;29;20058;-85
2021/12/21 06:53:58;;;;;;;15.85;6.35;;;-5.30;99.90;;;;;;4935357;29;20047;-83
2021/12/21 06:56:26;;;;;;;14.75;7.07;;;-5.50;99.90;;;;;;4935418;29;20057;-83
2021/12/21 06:58:55;;;;;;;7.97;6.60;;;-5.50;99.90;;;;;;4935286;29;20039;-83
2021/12/21 07:01:23;;;;;;;10.60;7.20;;;-5.50;99.90;;;;;;4935720;29;20050;-84
2021/12/21 07:03:49;;;;;;;11.35;6.40;;;-5.50;99.90;;;;;;4935580;29;20038;-88
2021/12/21 07:06:18;;;;;;;16.42;7.35;;;-5.60;99.90;;;;;;4935958;29;20051;-87
2021/12/21 07:08:58;;;;;;;9.93;7.07;;;-5.60;99.90;;;;;;4935539;29;20043;-85
2021/12/21 07:11:41;;;;;;;15.43;7.40;;;-5.50;99.90;;;;;;4902260;29;20055;-84
2021/12/21 07:19:38;;;;;;;11.40;6.95;;;-5.50;99.90;;;;;;4936924;29;20032;-88
2021/12/21 07:22:05;;;;;;;10.82;7.43;;;-5.60;99.90;;;;;;4936067;29;20065;-86
2021/12/21 07:24:32;;;;;;;16.15;7.80;;;-5.50;99.90;;;;;;4936258;29;20032;-85
2021/12/21 07:26:58;;;;;;;9.27;7.75;;;-5.60;99.90;;;;;;4940133;28;20035;-85
2021/12/21 07:29:25;;;;;;;13.55;7.57;;;-5.60;99.90;;;;;;4940466;29;20023;-84
2021/12/21 07:31:52;;;;;;;11.82;7.78;;;-5.50;99.90;;;;;;4939065;29;20485;-83
2021/12/21 07:34:18;;;;;;;13.07;7.55;;;-5.40;99.90;;;;;;4940108;29;20062;-82
2021/12/21 07:36:44;;;;;;;15.82;8.18;;;-5.30;99.90;;;;;;4949715;29;20039;-76
2021/12/21 07:39:14;;;;;;;11.07;7.78;;;-5.20;99.90;;;;;;4949718;29;20097;-75
2021/12/21 07:41:41;;;;;;;9.13;6.28;;;-5.20;99.90;;;;;;4930245;29;20397;-76
2021/12/21 07:44:11;;;;;;;17.10;10.82;;;-5.20;99.90;;;;;;4931856;29;20401;-75
2021/12/21 07:46:40;;;;;;;14.23;7.53;;;-5.20;99.90;;;;;;4922248;29;20393;-75
2021/12/21 07:49:06;;;;;;;11.35;6.18;;;-5.20;99.90;;;;;;4938198;29;20070;-75
2021/12/21 07:51:33;;;;;;;9.82;6.47;;;-5.20;99.90;;;;;;4949369;29;20043;-75
2021/12/21 07:53:59;;;;;;;13.43;7.22;;;-5.20;99.90;;;;;;4942021;29;20055;-76
2021/12/21 07:56:25;;;;;;;16.10;6.88;;;-5.20;99.90;;;;;;4938425;29;20050;-75
2021/12/21 07:58:52;;;;;;;16.50;6.75;;;-5.20;99.90;;;;;;4939805;29;20042;-76
2021/12/21 08:01:19;;;;;;;16.63;7.22;;;-5.20;99.90;;;;;;4946689;29;20039;-75
2021/12/21 08:03:45;;;;;;;10.05;7.05;;;-5.20;99.90;;;;;;4939198;29;20032;-76
2021/12/21 08:06:13;;;;;;;16.38;8.15;;;-5.10;99.90;;;;;;4922765;29;20067;-76
2021/12/21 08:08:42;;;;;;;12.00;7.90;;;-5.10;99.90;;;;;;4939893;29;20366;-76
2021/12/21 08:11:27;;;;;;;11.80;7.70;;;-5.00;99.90;;;;;;4957570;29;20039;-75
2021/12/21 08:13:55;;;;;;;12.90;7.00;;;-4.90;99.90;;;;;;4937450;29;20055;-76
2021/12/21 08:16:21;;;;;;;12.10;7.85;;;-4.80;99.90;;;;;;4933405;29;20485;-76
2021/12/21 08:18:47;;;;;;;10.95;7.03;;;-4.80;99.90;;;;;;4939384;29;20058;-78
2021/12/21 08:21:17;;;;;;;10.13;7.60;;;-4.70;99.90;;;;;;4940968;29;20039;-76
2021/12/21 08:23:43;;;;;;;17.83;8.55;;;-4.60;99.90;;;;;;4957055;29;20039;-80
2021/12/21 08:26:10;;;;;;;13.85;8.35;;;-4.40;99.90;;;;;;4950474;29;20040;-77
2021/12/21 08:28:36;;;;;;;12.52;8.80;;;-4.40;99.90;;;;;;4926107;29;20024;-77
2021/12/21 08:31:03;;;;;;;14.63;9.45;;;-4.20;99.90;;;;;;4936453;29;20229;-77
2021/12/21 08:33:29;;;;;;;11.00;8.80;;;-4.10;99.90;;;;;;4940364;29;20686;-77
2021/12/21 08:35:56;;;;;;;13.07;9.55;;;-4.00;99.90;;;;;;4956970;29;20034;-76
2021/12/21 08:38:22;;;;;;;9.57;8.40;;;-3.90;99.90;;;;;;4938141;29;20478;-77
2021/12/21 08:40:50;;;;;;;18.13;8.45;;;-3.80;99.90;;;;;;4955488;29;20465;-77
2021/12/21 08:43:24;;;;;;;15.90;9.60;;;-3.70;99.90;;;;;;4943113;29;20034;-76
2021/12/21 08:45:52;;;;;;;13.88;9.05;;;-3.60;99.90;;;;;;4926699;29;20046;-78
2021/12/21 08:48:20;;;;;;;13.20;8.30;;;-3.50;99.90;;;;;;4956980;29;20047;-76
2021/12/21 08:50:48;;;;;;;12.50;8.65;;;-3.40;99.90;;;;;;4956517;29;20058;-77
2021/12/21 08:53:15;;;;;;;16.77;8.68;;;-3.20;99.90;;;;;;4957477;29;20032;-76
2021/12/21 08:55:42;;;;;;;12.48;8.27;;;-3.10;99.90;;;;;;4947310;29;20039;-76
2021/12/21 08:58:09;;;;;;;15.82;9.38;;;-3.00;99.90;;;;;;4943484;29;20035;-76
2021/12/21 09:00:36;;;;;;;24.27;9.02;;;-2.90;99.90;;;;;;4922854;29;20031;-77
2021/12/21 09:03:04;;;;;;;42.05;9.93;;;-2.70;99.90;;;;;;4950552;29;20481;-76
2021/12/21 09:05:31;;;;;;;11.48;8.45;;;-2.60;99.90;;;;;;4948265;29;20469;-76
2021/12/21 09:07:59;;;;;;;13.18;9.90;;;-2.60;99.90;;;;;;4937414;29;20032;-76
2021/12/21 09:10:27;;;;;;;10.50;8.70;;;-2.50;99.90;;;;;;4951697;29;20031;-77
2021/12/21 09:12:53;;;;;;;12.38;8.95;;;-2.40;99.90;;;;;;4950447;29;20388;-80
2021/12/21 09:15:22;;;;;;;15.13;8.48;;;-2.40;99.90;;;;;;4937368;29;20031;-77
2021/12/21 09:17:48;;;;;;;11.75;7.90;;;-2.30;99.90;;;;;;4951017;29;20035;-77
2021/12/21 09:20:19;;;;;;;9.60;7.93;;;-2.20;99.90;;;;;;4955957;29;20039;-77
2021/12/21 09:22:46;;;;;;;7.85;7.00;;;-2.10;99.90;;;;;;4955212;29;20042;-79
2021/12/21 09:25:13;;;;;;;9.85;6.93;;;-2.00;99.90;;;;;;4943193;29;20039;-80
2021/12/21 09:27:39;;;;;;;13.95;8.35;;;-1.90;99.90;;;;;;4955441;29;20042;-81
2021/12/21 09:30:09;;;;;;;15.45;7.70;;;-1.80;99.90;;;;;;4934711;29;20040;-77
2021/12/21 09:32:35;;;;;;;12.23;6.95;;;-1.70;99.90;;;;;;4944533;29;20054;-77
2021/12/21 09:35:02;;;;;;;8.90;6.75;;;-1.60;99.90;;;;;;4951135;29;20044;-77
2021/12/21 09:37:29;;;;;;;16.25;7.40;;;-1.50;99.90;;;;;;4952116;29;20465;-77
2021/12/21 09:39:56;;;;;;;10.15;6.43;;;-1.40;99.90;;;;;;4938050;29;20047;-77
2021/12/21 09:42:28;;;;;;;10.68;6.97;;;-1.30;99.90;;;;;;4937228;29;20039;-76
2021/12/21 09:44:55;;;;;;;8.52;6.75;;;-1.20;99.90;;;;;;4936813;29;20484;-78
2021/12/21 09:47:22;;;;;;;9.65;6.93;;;-1.10;99.90;;;;;;4943310;29;20054;-77
2021/12/21 09:49:49;;;;;;;16.80;6.35;;;-1.00;99.90;;;;;;4933475;29;20052;-78
2021/12/21 09:52:20;;;;;;;9.07;6.25;;;-1.00;99.90;;;;;;4935850;29;20048;-77
2021/12/21 09:54:47;;;;;;;;;;;-0.90;99.90;;;;;;4949269;29;20039;-77
2021/12/21 09:57:16;;;;;;;10.27;6.53;;;-0.80;99.90;;;;;;4938841;29;19916;-77
2021/12/21 09:59:44;;;;;;;10.23;7.47;;;-0.70;99.90;;;;;;4933930;29;20043;-77
2021/12/21 10:02:11;;;;;;;10.85;6.00;;;-0.50;99.90;;;;;;4937053;29;20032;-77
2021/12/21 10:04:46;;;;;;;18.20;6.35;;;-0.50;99.90;;;;;;4935923;29;20495;-77
2021/12/21 10:07:14;;;;;;;8.50;6.10;;;-0.40;99.90;;;;;;4947387;29;20480;-77
2021/12/21 10:09:43;;;;;;;11.00;6.88;;;-0.30;99.90;;;;;;4936699;29;20024;-77
2021/12/21 10:12:34;;;;;;;9.13;6.28;;;-0.20;99.90;;;;;;4935356;29;20036;-77
2021/12/21 10:15:15;;;;;;;6.15;5.55;;;-0.10;99.90;;;;;;4944823;29;20039;-77
2021/12/21 10:17:53;;;;;;;10.38;6.35;;;0.00;99.90;;;;;;4937754;29;20039;-77
2021/12/21 10:20:44;;;;;;;12.23;6.32;;;0.10;99.90;;;;;;4953303;29;20036;-78
2021/12/21 10:23:20;;;;;;;7.18;4.97;;;0.20;99.90;;;;;;4945287;29;20491;-78
2021/12/21 10:25:51;;;;;;;9.73;5.90;;;0.20;99.90;;;;;;4953906;29;20031;-79
2021/12/21 10:28:37;;;;;;;9.38;6.30;;;0.30;99.90;;;;;;4945288;29;20035;-78
2021/12/21 10:31:10;;;;;;;10.70;5.90;;;0.40;99.90;;;;;;4935991;29;20040;-77
2021/12/21 10:33:38;;;;;;;10.40;5.97;;;0.50;99.90;;;;;;4947723;29;20051;-77
2021/12/21 10:36:07;;;;;;;10.05;5.78;;;0.60;99.90;;;;;;4953689;29;20039;-77
2021/12/21 10:38:42;;;;;;;8.80;6.15;;;0.70;99.90;;;;;;4939425;29;20035;-77
2021/12/21 10:41:12;;;;;;;14.52;6.43;;;0.80;99.90;;;;;;4941144;29;20046;-77
2021/12/21 10:43:39;;;;;;;6.45;5.68;;;0.90;99.90;;;;;;4953986;29;20038;-77
2021/12/21 10:46:06;;;;;;;11.80;4.88;;;1.10;99.90;;;;;;4942517;29;20643;-74
2021/12/21 10:48:36;;;;;;;7.13;5.15;;;1.20;99.90;;;;;;4935675;29;20515;-78
2021/12/21 10:51:04;;;;;;;10.10;5.93;;;1.30;99.90;;;;;;4936501;29;20593;-78
2021/12/21 10:53:31;;;;;;;9.82;5.63;;;1.50;99.90;;;;;;4940614;29;20050;-76
2021/12/21 10:56:04;;;;;;;8.75;5.75;;;1.60;99.60;;;;;;4954508;29;20061;-76
2021/12/21 10:58:31;;;;;;;5.45;4.53;;;1.60;99.20;;;;;;4935773;29;20508;-76
2021/12/21 11:01:04;;;;;;;10.00;6.15;;;1.70;98.30;;;;;;4936943;29;20515;-75
2021/12/21 11:03:44;;;;;;;10.50;5.45;;;1.70;98.30;;;;;;4956167;29;20046;-75
2021/12/21 11:06:19;;;;;;;8.80;6.90;;;1.80;98.10;;;;;;4921462;29;20036;-75
2021/12/21 11:08:51;;;;;;;5.22;4.72;;;1.80;97.90;;;;;;4920256;29;20047;-76
2021/12/21 11:11:32;;;;;;;5.90;5.28;;;1.90;97.40;;;;;;4935760;29;20040;-76
2021/12/21 11:13:59;;;;;;;;;;;2.00;97.00;;;;;;4935691;29;20035;-78
2021/12/21 11:16:39;;;;;;;7.90;4.65;;;2.20;96.90;;;;;;4936158;29;20371;-75
2021/12/21 11:19:06;;;;;;;6.50;4.90;;;2.20;96.10;;;;;;4939008;29;20366;-77
2021/12/21 11:21:33;;;;;;;5.78;5.20;;;2.30;96.10;;;;;;4940874;29;20055;-76
2021/12/21 11:24:03;;;;;;;13.65;6.28;;;2.40;95.70;;;;;;4950793;29;20050;-77
2021/12/21 11:26:31;;;;;;;8.05;5.05;;;2.50;95.20;;;;;;4935485;29;20046;-77
2021/12/21 11:29:02;;;;;;;9.98;5.32;;;2.50;95.00;;;;;;4937440;29;20485;-77
2021/12/21 11:31:29;;;;;;;5.80;5.18;;;2.60;94.80;;;;;;4945182;29;20042;-77
2021/12/21 11:33:57;;;;;;;6.32;5.70;;;2.60;94.50;;;;;;4945339;28;20031;-77
2021/12/21 11:39:09;;;;;;;11.02;5.30;;;2.80;94.00;;;;;;4946857;29;20444;-78
2021/12/21 11:41:37;;;;;;;6.47;5.53;;;2.90;93.60;;;;;;4937032;29;20031;-77
2021/12/21 11:44:32;;;;;;;5.82;3.92;;;3.00;93.00;;;;;;4941114;29;20032;-77
2021/12/21 11:47:03;;;;;;;3.42;2.70;;;3.10;90.00;;;;;;4954059;29;20039;-77
2021/12/21 11:49:38;;;;;;;9.15;3.78;;;3.10;88.00;;;;;;4947187;29;20056;-77
2021/12/21 11:52:06;;;;;;;3.80;2.78;;;3.20;88.50;;;;;;4941376;29;20396;-77
2021/12/21 11:54:46;;;;;;;6.97;3.03;;;3.30;86.00;;;;;;4948039;29;20027;-76
2021/12/21 11:57:12;;;;;;;2.30;1.67;;;3.40;83.60;;;;;;4940850;29;20035;-76
2021/12/21 11:59:39;;;;;;;4.30;2.08;;;3.50;80.10;;;;;;4952310;29;20096;-75
2021/12/21 12:02:06;;;;;;;5.35;1.90;;;3.50;77.40;;;;;;4941984;29;20043;-76
2021/12/21 12:04:35;;;;;;;10.60;3.28;;;3.50;77.60;;;;;;4953383;29;20028;-76
2021/12/21 12:07:15;;;;;;;3.60;2.55;;;3.60;78.40;;;;;;4954141;29;20045;-75
2021/12/21 12:09:42;;;;;;;6.03;3.03;;;3.60;78.50;;;;;;4943232;29;20051;-76
2021/12/21 12:12:16;;;;;;;4.72;4.13;;;3.60;80.90;;;;;;4935488;29;20299;-77
2021/12/21 12:14:45;;;;;;;4.53;4.07;;;3.50;82.90;;;;;;4951836;29;20043;-76
2021/12/21 12:17:13;;;;;;;6.75;4.40;;;3.50;83.30;;;;;;4962353;29;20380;-76
2021/12/21 12:19:43;;;;;;;4.85;3.95;;;3.40;83.20;;;;;;4963144;29;20031;-77
2021/12/21 12:22:41;;;;;;;5.17;3.67;;;3.40;84.30;;;;;;4927877;29;20054;-75
2021/12/21 12:29:14;;;;;;;7.75;4.65;;;3.40;83.10;;;;;;4970203;28;20035;-76
2021/12/21 12:32:03;;;;;;;5.20;3.40;;;3.50;82.10;;;;;;4969302;29;20042;-77
2021/12/21 12:34:32;;;;;;;4.78;3.55;;;3.50;83.20;;;;;;4970866;29;20039;-77
2021/12/21 12:37:01;;;;;;;7.88;3.47;;;3.60;81.40;;;;;;4941427;29;20043;-77
2021/12/21 12:39:39;;;;;;;4.18;3.33;;;3.60;80.70;;;;;;4956612;29;20503;-74
2021/12/21 12:42:12;;;;;;;7.20;3.85;;;3.70;81.30;;;;;;4941597;29;20457;-77
2021/12/21 12:44:41;;;;;;;11.50;3.83;;;3.70;81.20;;;;;;4956023;29;20035;-78
2021/12/21 12:47:13;;;;;;;7.40;3.85;;;3.70;79.90;;;;;;4938675;29;20036;-80
2021/12/21 12:49:53;;;;;;;8.60;3.63;;;3.60;80.30;;;;;;4937827;29;20052;-80
2021/12/21 12:52:30;;;;;;;3.78;3.03;;;3.60;80.20;;;;;;4921967;29;20039;-78
2021/12/21 12:55:00;;;;;;;5.30;3.67;;;3.60;80.00;;;;;;4937416;29;20035;-80
2021/12/21 12:57:27;;;;;;;4.05;3.60;;;3.70;79.40;;;;;;4937430;29;20035;-80
2021/12/21 12:59:57;;;;;;;8.23;3.88;;;3.70;79.30;;;;;;4937352;29;20032;-78
2021/12/21 13:02:25;;;;;;;6.93;4.03;;;3.70;79.80;;;;;;4946538;29;20035;-77
2021/12/21 13:04:51;;;;;;;6.07;3.88;;;3.70;79.00;;;;;;4941782;29;20477;-79
2021/12/21 13:07:25;;;;;;;4.45;2.17;;;3.70;78.40;;;;;;4955765;29;20043;-78
2021/12/21 13:09:59;;;;;;;4.50;2.38;;;3.80;73.70;;;;;;4944214;29;20050;-81
2021/12/21 13:12:26;;;;;;;4.60;3.28;;;3.90;74.50;;;;;;4954226;29;20054;-78
2021/12/21 13:14:53;;;;;;;4.22;3.15;;;3.90;77.80;;;;;;4955136;29;20046;-78
2021/12/21 13:17:19;;;;;;;5.03;2.95;;;3.90;78.20;;;;;;4943352;29;20035;-78
2021/12/21 13:19:45;;;;;;;4.28;3.22;;;3.90;78.50;;;;;;4936963;29;20032;-79
2021/12/21 13:22:12;;;;;;;6.97;2.70;;;3.90;78.30;;;;;;4942794;29;20050;-78
2021/12/21 13:24:42;;;;;;;2.95;2.35;;;3.90;73.00;;;;;;4945340;29;20473;-78
2021/12/21 13:27:11;;;;;;;3.43;1.90;;;3.90;71.80;;;;;;4947220;29;20641;-76
2021/12/21 13:29:38;;;;;;;5.20;2.42;;;3.90;71.60;;;;;;4938224;29;20042;-77
2021/12/21 13:32:11;;;;;;;7.57;2.63;;;4.00;70.90;;;;;;4951312;29;20047;-77
2021/12/21 13:34:40;;;;;;;4.40;2.50;;;3.90;70.90;;;;;;4937483;29;20040;-76
2021/12/21 13:37:13;;;;;;;6.32;2.00;;;3.90;71.50;;;;;;4943404;29;20102;-76
2021/12/21 13:39:44;;;;;;;3.05;1.55;;;3.90;71.20;;;;;;4954842;29;20100;-77
2021/12/21 13:42:14;;;;;;;3.58;2.17;;;3.90;71.00;;;;;;4955128;29;20035;-77
2021/12/21 13:44:47;;;;;;;3.97;2.38;;;4.00;71.00;;;;;;4955289;29;20039;-76
2021/12/21 13:47:36;;;;;;;3.08;2.35;;;3.90;70.70;;;;;;4914125;29;20047;-77
2021/12/21 13:50:26;;;;;;;4.85;2.70;;;3.80;70.70;;;;;;4947374;29;20059;-76
2021/12/21 13:53:00;;;;;;;2.72;2.28;;;3.90;71.60;;;;;;4954904;29;20070;-77